Flight Track Log - Related Links

Times and Time Zones

All times are in EDT time to prevent confusion due to time zone crossing. See the EGF4193 flight status page for this flight to view local times or setup timezone preferences in your user account.

Time Position Orientation Groundspeed Altitude Reporting Facility
EDT Latitude Longitude Course Direction KTS MPH feet Rate Location/Type
Tue 08:54:15 PM 37.5115 -77.3500 180° South  Level FlightAware Approximate
Tue 08:55:15 PM 37.4618 -77.4575 118° Southeast  Level FlightAware Approximate
Tue 08:56:24 PM 37.4167 -77.3500 255° West 210 242 4,700  Level Potomac TRACON
Tue 08:57:45 PM 37.3978 -77.4400 266° West 242 278 6,700 1,532 Climbing Washington Center
Tue 08:58:45 PM 37.3922 -77.5289 266° West 247 284 8,300 1,934 Climbing Washington Center
Tue 08:59:46 PM 37.3864 -77.6306 264° West 259 298 10,600 2,231 Climbing Washington Center
Tue 09:00:46 PM 37.3783 -77.7244 266° West 269 310 12,800 2,237 Climbing Washington Center
Tue 09:01:44 PM 37.3725 -77.8261 266° West 280 322 15,000 2,067 Climbing Washington Center
Tue 09:02:45 PM 37.3664 -77.9281 259° West 292 336 16,900 1,488 Climbing Washington Center
Tue 09:03:45 PM 37.3497 -78.0319 254° West 300 345 18,000 1,041 Climbing Washington Center
Tue 09:04:46 PM 37.3222 -78.1511 255° West 325 374 19,000 1,008 Climbing Washington Center
Tue 09:05:44 PM 37.2967 -78.2706 290° West 351 404 20,000 857 Climbing Washington Center
Tue 09:06:45 PM 37.3314 -78.3919 316° Northwest 359 413 20,700 1,230 Climbing Washington Center
Tue 09:07:46 PM 37.4064 -78.4833 316° Northwest 347 399 22,500 1,765 Climbing Washington Center
Tue 09:08:44 PM 37.4792 -78.5728 310° West 352 405 24,200 1,513 Climbing Washington Center
Tue 09:09:45 PM 37.5375 -78.6614 290° West 358 412 25,500 1,240 Climbing Washington Center
Tue 09:10:45 PM 37.5719 -78.7806 289° West 358 412 26,700 1,240 Climbing Washington Center
Tue 09:11:46 PM 37.6042 -78.9000 288° West 358 412 28,000 1,412 Climbing Washington Center
Tue 09:12:44 PM 37.6381 -79.0325 289° West 358 412 29,500 1,412 Climbing Washington Center
Tue 09:13:45 PM 37.6719 -79.1547 288° West 358 412 30,800 1,180 Climbing Washington Center
Tue 09:14:46 PM 37.7036 -79.2797 291° West 375 432 31,900 605 Climbing Washington Center
Tue 09:15:44 PM 37.7375 -79.3942 302° West 375 432 32,000 50 Climbing Washington Center
Tue 09:16:45 PM 37.7983 -79.5156 322° Northwest 388 447 32,000  Level Washington Center
Tue 09:17:45 PM 37.8914 -79.6072 321° Northwest 401 461 32,000 347 Level Washington Center
Tue 09:18:46 PM 37.9942 -79.7128 320° Northwest 421 484 32,700 807 Climbing Washington Center
Tue 09:19:44 PM 38.0806 -79.8047 319° Northwest 421 484 33,600 958 Climbing Washington Center
Tue 09:20:45 PM 38.1628 -79.8964 321° Northwest 414 476 34,600 942 Climbing Washington Center
Tue 09:21:45 PM 38.2431 -79.9806 320° Northwest 394 453 35,500 706 Climbing Washington Center
Tue 09:22:44 PM 38.3133 -80.0561 320° Northwest 380 437 36,000 155 Climbing Washington Center
Tue 09:24:59 PM 38.5058 -80.2661 320° Northwest 394 453 36,000  Level Indianapolis Center
Tue 09:25:59 PM 38.5875 -80.3528 322° Northwest 394 453 36,000  Level Indianapolis Center
Tue 09:26:59 PM 38.6689 -80.4342 321° Northwest 384 442 36,000  Level Indianapolis Center
Tue 09:27:59 PM 38.7503 -80.5186 337° Northwest 384 442 36,000  Level Indianapolis Center
Tue 09:28:59 PM 38.8497 -80.5731 338° Northwest 384 442 36,000  Level Indianapolis Center
Tue 09:30:01 PM 38.9511 -80.6250 338° Northwest 384 442 36,000  Level Indianapolis Center
Tue 09:31:11 PM 39.0717 -80.6869 337° Northwest 384 442 36,000  Level Indianapolis Center
Tue 09:32:11 PM 39.1731 -80.7419 334° Northwest 384 442 36,000  Level Indianapolis Center
Tue 09:33:11 PM 39.2703 -80.8022 326° Northwest 384 442 36,000  Level Indianapolis Center
Tue 09:34:11 PM 39.3619 -80.8819 327° Northwest 389 448 36,000  Level Indianapolis Center
Tue 09:35:11 PM 39.4533 -80.9594 317° Northwest 389 448 36,000  Level Indianapolis Center
Tue 09:36:11 PM 39.5325 -81.0561 315° West 394 453 36,000  Level Indianapolis Center
Tue 09:37:11 PM 39.6075 -81.1531 316° Northwest 389 448 36,000  Level Indianapolis Center
Tue 09:38:11 PM 39.6844 -81.2503 314° West 384 442 36,000  Level Indianapolis Center
Tue 09:39:11 PM 39.7572 -81.3478 294° West 384 442 36,000  Level Indianapolis Center
Tue 09:40:11 PM 39.7947 -81.4575 298° West 370 426 36,000 -50 Level Indianapolis Center
Tue 09:41:11 PM 39.8447 -81.5803 293° West 370 426 35,900  Descending Indianapolis Center
Tue 09:42:11 PM 39.8886 -81.7144 293° West 377 434 36,000 50 Climbing Indianapolis Center
Tue 09:43:11 PM 39.9300 -81.8406 292° West 372 428 36,000  Level Indianapolis Center
Tue 09:44:11 PM 39.9694 -81.9669 295° West 372 428 36,000  Level Indianapolis Center
Tue 09:45:11 PM 40.0150 -82.0961 292° West 377 434 36,000  Level Indianapolis Center
Tue 09:46:11 PM 40.0539 -82.2228 296° West 377 434 36,000  Level Indianapolis Center
Tue 09:47:11 PM 40.1011 -82.3519 292° West 384 442 36,000  Level Indianapolis Center
Tue 09:48:11 PM 40.1400 -82.4789 294° West 384 442 36,000  Level Indianapolis Center
Tue 09:49:11 PM 40.1847 -82.6114 293° West 389 448 36,000  Level Indianapolis Center
Tue 09:50:11 PM 40.2253 -82.7386 293° West 389 448 36,000  Level Indianapolis Center
Tue 09:51:11 PM 40.2678 -82.8689 292° West 389 448 36,000  Level Indianapolis Center
Tue 09:52:11 PM 40.3081 -83.0017 293° West 389 448 36,000  Level Indianapolis Center
Tue 09:53:11 PM 40.3503 -83.1294 293° West 389 448 36,000  Level Indianapolis Center
Tue 09:54:11 PM 40.3925 -83.2628 293° West 389 448 36,000  Level Indianapolis Center
Tue 09:55:11 PM 40.4344 -83.3933 292° West 389 448 36,000 -100 Level Indianapolis Center
Tue 09:56:11 PM 40.4700 -83.5106 292° West 389 448 35,800 -650 Descending Indianapolis Center
Tue 09:57:11 PM 40.5117 -83.6444 293° West 389 448 34,700 -900 Descending Indianapolis Center
Tue 09:58:11 PM 40.5531 -83.7700 290° West 389 448 34,000 -350 Descending Indianapolis Center
Tue 09:59:11 PM 40.5903 -83.9014 293° West 389 448 34,000  Level Indianapolis Center
Tue 10:00:52 PM 40.6586 -84.1186 292° West 370 426 34,000  Level Chicago Center
Tue 10:01:52 PM 40.7000 -84.2522 293° West 389 448 34,000  Level Chicago Center
Tue 10:02:52 PM 40.7414 -84.3833 290° West 394 453 34,000  Level Chicago Center
Tue 10:03:52 PM 40.7783 -84.5150 291° West 394 453 34,000  Level Chicago Center
Tue 10:04:52 PM 40.8150 -84.6442 293° West 382 440 34,000  Level Chicago Center
Tue 10:05:52 PM 40.8606 -84.7892 291° West 382 440 34,000  Level Chicago Center
Tue 10:06:52 PM 40.8992 -84.9211 290° West 382 440 34,000  Level Chicago Center
Tue 10:07:52 PM 40.9356 -85.0533 292° West 388 447 34,000  Level Chicago Center
Tue 10:08:52 PM 40.9758 -85.1883 291° West 399 459 34,000 -100 Level Chicago Center
Tue 10:09:52 PM 41.0142 -85.3236 290° West 393 452 33,800 -1,600 Descending Chicago Center
Tue 10:10:52 PM 41.0522 -85.4617 292° West 393 452 30,800 -3,000 Descending Chicago Center
Tue 10:11:52 PM 41.0900 -85.5889 290° West 392 451 27,800 -3,000 Descending Chicago Center
Tue 10:12:52 PM 41.1253 -85.7192 291° West 384 442 24,800 -1,900 Descending Chicago Center
Tue 10:13:52 PM 41.1631 -85.8525 290° West 374 430 24,000 -850 Descending Chicago Center
Tue 10:14:52 PM 41.1981 -85.9831 292° West 379 436 23,100 -900 Descending Chicago Center
Tue 10:15:52 PM 41.2328 -86.1000 290° West 379 436 22,200 -1,000 Descending Chicago Center
Tue 10:16:52 PM 41.2700 -86.2361 290° West 394 453 21,100 -1,050 Descending Chicago Center
Tue 10:17:52 PM 41.3069 -86.3728 290° West 394 453 20,100 -1,000 Descending Chicago Center
Tue 10:18:52 PM 41.3436 -86.5067 290° West 394 453 19,100 -1,500 Descending Chicago Center
Tue 10:19:52 PM 41.3803 -86.6406 289° West 394 453 17,100 -2,000 Descending Chicago Center
Tue 10:20:52 PM 41.4122 -86.7611 290° West 372 428 15,100 -2,000 Descending Chicago Center
Tue 10:21:52 PM 41.4419 -86.8708 289° West 344 396 13,100 -1,500 Descending Chicago Center
Tue 10:22:52 PM 41.4669 -86.9694 290° West 308 354 12,100 -500 Descending Chicago Center
Tue 10:23:52 PM 41.4894 -87.0519 290° West 268 308 12,100 -50 Level Chicago Center
Tue 10:24:52 PM 41.5097 -87.1261 278° West 233 268 12,000 -50 Descending Chicago Center
Tue 10:25:52 PM 41.5175 -87.2033 165° South 216 249 12,000  Level Chicago Center
Tue 10:26:52 PM 41.4544 -87.1806 113° Southeast 272 313 12,000  Level Chicago Center
Tue 10:27:52 PM 41.4256 -87.0903 113° Southeast 298 343 12,000 50 Level Chicago Center
Tue 10:28:52 PM 41.3967 -86.9997 60° Northeast 279 321 12,100 50 Climbing Chicago Center
Tue 10:29:52 PM 41.4244 -86.9350 311° West 247 284 12,100  Level Chicago Center
Tue 10:30:52 PM 41.4675 -87.0000 291° West 278 320 12,100 -150 Level Chicago Center
Tue 10:31:52 PM 41.4922 -87.0878 296° West 257 296 11,800 -550 Descending Chicago Center
Tue 10:32:52 PM 41.5253 -87.1781 311° West 268 308 11,000 -400 Descending Chicago Center
Tue 10:33:52 PM 41.5747 -87.2542 311° West 273 314 11,000  Level Chicago Center
Tue 10:34:52 PM 41.6239 -87.3306 312° West 278 320 11,000  Level Chicago Center
Tue 10:35:52 PM 41.6797 -87.4150 309° West 278 320 11,000 -500 Level Chicago Center
Tue 10:36:52 PM 41.7247 -87.4886 310° West 273 314 10,000 -1,000 Descending Chicago Center
Tue 10:37:52 PM 41.7717 -87.5625 309° West 273 314 9,000 -1,000 Descending Chicago Center
Tue 10:38:52 PM 41.8167 -87.6364 318° Northwest 268 308 8,000 -839 Descending Chicago Center
Tue 10:40:15 PM 41.8833 -87.7167 315° West 249 287 7,000 -420 Descending Chicago TRACON
Tue 10:41:15 PM 41.9333 -87.7833 323° Northwest 249 287 7,000  Level Chicago TRACON
Tue 10:42:15 PM 41.9833 -87.8333 346° North 207 238 7,000  Level Chicago TRACON
Tue 10:43:15 PM 42.0333 -87.8500 340° North 191 220 7,000  Level Chicago TRACON
Tue 10:44:21 PM 42.1000 -87.8833 246° West 189 217 7,000  Level Chicago TRACON
Tue 10:45:21 PM 42.0833 -87.9333 251° West 179 206 7,000  Level Chicago TRACON
Tue 10:46:21 PM 42.0667 -88.0000 270° West 175 201 7,000 -397 Level Chicago TRACON
Tue 10:47:22 PM 42.0667 -88.0667 270° West 176 203 6,200 -893 Descending Chicago TRACON
Tue 10:48:22 PM 42.0667 -88.1333 270° West 178 205 5,200 -1,000 Descending Chicago TRACON
Tue 10:49:22 PM 42.0667 -88.2000 270° West 191 220 4,200 -600 Descending Chicago TRACON
Tue 10:50:22 PM 42.0667 -88.2667 270° West 181 208 4,000 -100 Descending Chicago TRACON
Tue 10:51:22 PM 42.0667 -88.3333 206° Southwest 193 222 4,000  Level Chicago TRACON
Tue 10:52:22 PM 42.0167 -88.3667 132° Southeast 182 209 4,000  Level Chicago TRACON
Tue 10:53:22 PM 41.9833 -88.3167 90° East 181 208 4,000  Level Chicago TRACON
Tue 10:54:22 PM 41.9833 -88.2500 90° East 183 211 4,000  Level Chicago TRACON
Tue 10:55:16 PM 41.9833 -88.2000 90° East 184 212 4,000  Level Chicago TRACON

Login

Don't have an account? Register now (free) for customized features, flight alerts, and more!